Time;durP1;ratioP1;P1;durP2;ratioP2;P2;SDS_P1;SDS_P2;PMS_P1;PMS_P2;Temp;Humidity;BMP_temperature;BMP_pressure;BME280_temperature;BME280_humidity;BME280_pressure;Samples;Min_cycle;Max_cycle;Signal;HPM_P1;HPM_P2
2023/04/21 00:01:12;;;;;;;26.50;16.77;;;;;;;7.53;100.00;101582.94;5050365;28;20029;-45
2023/04/21 00:03:38;;;;;;;30.83;17.17;;;;;;;7.52;100.00;101584.78;5062659;28;20032;-45
2023/04/21 00:06:08;;;;;;;29.15;17.58;;;;;;;7.50;100.00;101576.03;5063101;28;20063;-43
2023/04/21 00:08:39;;;;;;;33.08;17.95;;;;;;;7.47;100.00;101570.97;5053600;28;20127;-49
2023/04/21 00:11:07;;;;;;;32.42;17.85;;;;;;;7.48;100.00;101556.59;5057015;28;20028;-48
2023/04/21 00:13:34;;;;;;;41.10;20.20;;;;;;;7.44;100.00;101553.34;5064002;28;20473;-44
2023/04/21 00:15:59;;;;;;;41.30;20.55;;;;;;;7.48;100.00;101554.75;5053642;28;20029;-46
2023/04/21 00:18:26;;;;;;;40.25;21.48;;;;;;;7.47;100.00;101554.88;5050363;28;20112;-42
2023/04/21 00:20:52;;;;;;;40.42;20.48;;;;;;;7.48;100.00;101562.78;5056609;28;20411;-43
2023/04/21 00:23:18;;;;;;;36.53;21.25;;;;;;;7.49;100.00;101571.66;5055042;28;20119;-43
2023/04/21 00:25:43;;;;;;;39.38;20.08;;;;;;;7.50;100.00;101585.91;5058221;28;20071;-43
2023/04/21 00:28:09;;;;;;;41.63;21.85;;;;;;;7.48;100.00;101583.38;5064574;28;20056;-48
2023/04/21 00:30:34;;;;;;;38.45;20.38;;;;;;;7.47;100.00;101585.19;5060420;28;20060;-46
2023/04/21 00:33:00;;;;;;;45.88;21.83;;;;;;;7.44;100.00;101584.66;5053801;28;20029;-44
2023/04/21 00:35:25;;;;;;;42.78;21.88;;;;;;;7.42;100.00;101586.63;5062002;28;20033;-45
2023/04/21 00:37:50;;;;;;;42.22;21.35;;;;;;;7.41;100.00;101588.44;5036727;28;20020;-44
2023/04/21 00:40:16;;;;;;;45.33;22.30;;;;;;;7.40;100.00;101583.25;5056039;28;20067;-46
2023/04/21 00:42:41;;;;;;;57.92;24.48;;;;;;;7.43;100.00;101588.31;5051903;28;20025;-46
2023/04/21 00:45:07;;;;;;;46.90;22.20;;;;;;;7.41;100.00;101577.75;5049763;28;20032;-47
2023/04/21 00:47:33;;;;;;;56.22;24.55;;;;;;;7.40;100.00;101570.72;5054193;28;20035;-44
2023/04/21 00:49:58;;;;;;;56.75;23.33;;;;;;;7.40;100.00;101564.50;5060280;28;20502;-45
2023/04/21 00:52:24;;;;;;;58.88;25.42;;;;;;;7.42;100.00;101557.16;5056558;28;20025;-46
2023/04/21 00:54:51;;;;;;;55.60;24.95;;;;;;;7.39;100.00;101541.38;5059431;28;20029;-42
2023/04/21 00:57:17;;;;;;;57.88;25.35;;;;;;;7.40;100.00;101540.41;5047850;28;20040;-45
2023/04/21 00:59:43;;;;;;;59.38;25.52;;;;;;;7.39;100.00;101544.91;5050632;28;20573;-42
2023/04/21 01:02:08;;;;;;;64.90;27.63;;;;;;;7.39;100.00;101544.06;5054038;28;20024;-44
2023/04/21 01:04:38;;;;;;;61.85;27.80;;;;;;;7.42;100.00;101543.75;5058504;28;20127;-43
2023/04/21 01:07:06;;;;;;;63.63;27.98;;;;;;;7.38;100.00;101539.69;5048617;28;20067;-46
2023/04/21 01:09:32;;;;;;;73.45;29.50;;;;;;;7.40;100.00;101537.72;5062199;28;20106;-46
2023/04/21 01:12:09;;;;;;;63.25;28.42;;;;;;;7.39;100.00;101538.69;5056929;28;20479;-45
2023/04/21 01:14:35;;;;;;;67.45;29.20;;;;;;;7.37;100.00;101532.63;5049474;28;20078;-48
2023/04/21 01:17:04;;;;;;;67.15;29.95;;;;;;;7.40;100.00;101532.38;5058107;28;20025;-44
2023/04/21 01:19:33;;;;;;;69.65;30.48;;;;;;;7.43;100.00;101542.78;5034893;28;20965;-50
2023/04/21 01:21:59;;;;;;;65.45;28.58;;;;;;;7.45;100.00;101543.47;5064242;28;20478;-48
2023/04/21 01:24:37;;;;;;;73.85;29.77;;;;;;;7.43;100.00;101548.16;5063749;28;20276;-44
2023/04/21 01:27:06;;;;;;;75.68;29.52;;;;;;;7.46;100.00;101542.50;5049542;28;20059;-48
2023/04/21 01:29:33;;;;;;;71.65;29.02;;;;;;;7.45;100.00;101543.47;5045188;28;20028;-43
2023/04/21 01:32:04;;;;;;;68.65;27.02;;;;;;;7.44;100.00;101544.47;5060571;28;20528;-48
2023/04/21 01:34:29;;;;;;;75.60;29.95;;;;;;;7.41;100.00;101542.94;5055137;28;20020;-43
2023/04/21 01:36:55;;;;;;;74.00;30.20;;;;;;;7.38;100.00;101551.25;5057588;28;20021;-47
2023/04/21 01:39:20;;;;;;;78.38;31.80;;;;;;;7.36;100.00;101558.59;5058613;28;20390;-50
2023/04/21 01:41:45;;;;;;;75.80;30.65;;;;;;;7.36;100.00;101555.06;5059516;28;20021;-51
2023/04/21 01:44:11;;;;;;;81.03;31.33;;;;;;;7.32;100.00;101545.59;5061251;28;20123;-47
2023/04/21 01:46:37;;;;;;;75.88;31.25;;;;;;;7.37;100.00;101549.56;5051669;28;20033;-47
2023/04/21 01:49:04;;;;;;;77.88;30.77;;;;;;;7.38;100.00;101550.41;5052003;28;20048;-47
2023/04/21 01:51:30;;;;;;;88.25;32.55;;;;;;;7.38;100.00;101531.66;5058111;28;20115;-47
2023/04/21 01:53:55;;;;;;;90.43;33.10;;;;;;;7.35;100.00;101540.84;5068950;28;20046;-48
2023/04/21 01:56:20;;;;;;;87.78;34.40;;;;;;;7.35;100.00;101532.81;5053105;28;20474;-46
2023/04/21 01:58:46;;;;;;;81.75;32.15;;;;;;;7.38;100.00;101539.69;5065733;28;20489;-49
2023/04/21 02:01:11;;;;;;;90.45;34.08;;;;;;;7.36;100.00;101530.97;5070516;28;20020;-45
2023/04/21 02:03:36;;;;;;;89.95;33.28;;;;;;;7.32;100.00;101519.72;5071739;28;20189;-45
2023/04/21 02:06:02;;;;;;;85.80;33.80;;;;;;;7.34;100.00;101514.19;5060120;28;20059;-49
2023/04/21 02:08:28;;;;;;;102.13;37.08;;;;;;;7.38;100.00;101513.75;5064334;28;20040;-46
2023/04/21 02:10:53;;;;;;;95.45;36.90;;;;;;;7.32;100.00;101510.81;5072075;28;20037;-47
2023/04/21 02:13:19;;;;;;;104.82;35.10;;;;;;;7.38;100.00;101508.41;5054497;28;20098;-49
2023/04/21 02:15:45;;;;;;;91.55;34.25;;;;;;;7.35;100.00;101505.19;5059488;28;20133;-48
2023/04/21 02:18:10;;;;;;;87.82;32.70;;;;;;;7.34;100.00;101506.16;5060019;28;20078;-47
2023/04/21 02:20:36;;;;;;;99.20;35.75;;;;;;;7.33;100.00;101507.16;5068901;28;20030;-52
2023/04/21 02:23:01;;;;;;;94.90;35.03;;;;;;;7.34;100.00;101500.81;5060509;28;20068;-49
2023/04/21 02:25:28;;;;;;;95.75;35.22;;;;;;;7.33;100.00;101509.84;5061296;28;20098;-48
2023/04/21 02:27:54;;;;;;;104.57;35.00;;;;;;;7.33;100.00;101499.13;5058516;28;20031;-49
2023/04/21 02:30:19;;;;;;;97.18;35.60;;;;;;;7.31;100.00;101490.38;5068042;28;20055;-50
2023/04/21 02:32:44;;;;;;;104.00;36.33;;;;;;;7.34;100.00;101493.59;5058246;28;20070;-46
2023/04/21 02:35:10;;;;;;;100.82;36.85;;;;;;;7.28;100.00;101502.22;5051965;28;20620;-45
2023/04/21 02:37:35;;;;;;;105.55;34.85;;;;;;;7.30;100.00;101494.91;5050987;28;20025;-48
2023/04/21 02:40:01;;;;;;;101.82;36.67;;;;;;;7.30;100.00;101496.75;5053666;28;20124;-49
2023/04/21 02:42:26;;;;;;;104.50;36.95;;;;;;;7.29;100.00;101506.59;5051980;28;20686;-46
2023/04/21 02:44:51;;;;;;;101.80;36.17;;;;;;;7.26;100.00;101491.66;5057556;28;20029;-45
2023/04/21 02:47:16;;;;;;;102.20;37.00;;;;;;;7.28;100.00;101486.16;5052419;28;20055;-46
2023/04/21 02:49:42;;;;;;;103.43;36.47;;;;;;;7.32;100.00;101492.06;5058193;28;20052;-49
2023/04/21 02:52:07;;;;;;;106.85;37.97;;;;;;;7.31;100.00;101485.03;5071141;28;20054;-50
2023/04/21 02:54:33;;;;;;;110.32;35.60;;;;;;;7.28;100.00;101482.66;5054938;28;20116;-50
2023/04/21 02:56:58;;;;;;;105.15;36.00;;;;;;;7.28;100.00;101478.13;5057216;28;20032;-51
2023/04/21 02:59:23;;;;;;;105.72;37.10;;;;;;;7.26;100.00;101475.59;5054840;28;20116;-46
2023/04/21 03:01:49;;;;;;;107.28;37.50;;;;;;;7.23;100.00;101477.72;5055572;28;20025;-47
2023/04/21 03:04:14;;;;;;;109.93;38.20;;;;;;;7.25;100.00;101475.75;5057075;28;20112;-50
2023/04/21 03:06:40;;;;;;;105.68;38.33;;;;;;;7.23;100.00;101478.56;5053905;28;20131;-46
2023/04/21 03:09:05;;;;;;;120.38;39.20;;;;;;;7.22;100.00;101476.03;5065818;28;20060;-46
2023/04/21 03:11:30;;;;;;;114.20;39.00;;;;;;;7.26;100.00;101470.22;5070717;28;20059;-47
2023/04/21 03:13:56;;;;;;;110.00;40.85;;;;;;;7.29;100.00;101477.13;5067649;28;20036;-45
2023/04/21 03:16:21;;;;;;;114.07;37.95;;;;;;;7.30;100.00;101478.00;5064376;28;20046;-47
2023/04/21 03:18:47;;;;;;;116.50;41.38;;;;;;;7.30;100.00;101476.16;5064231;28;20024;-48
2023/04/21 03:21:12;;;;;;;119.78;39.55;;;;;;;7.31;100.00;101479.66;5051665;28;20563;-50
2023/04/21 03:23:37;;;;;;;125.53;41.30;;;;;;;7.31;100.00;101475.16;5051604;28;20039;-48
2023/04/21 03:26:06;;;;;;;1.85;1.75;;;;;;;7.32;100.00;101481.34;5070353;28;20473;-50
2023/04/21 03:28:31;;;;;;;0.35;0.35;;;;;;;7.30;100.00;101480.69;5066790;28;20249;-48
2023/04/21 03:30:56;;;;;;;2.72;0.50;;;;;;;7.31;100.00;101472.47;5052666;28;20395;-48
2023/04/21 03:33:22;;;;;;;4.75;3.22;;;;;;;7.30;100.00;101468.13;5050103;28;20035;-47
2023/04/21 03:35:47;;;;;;;1.67;1.63;;;;;;;7.32;100.00;101460.81;5066261;28;20130;-48
2023/04/21 03:38:14;;;;;;;2.58;2.40;;;;;;;7.32;100.00;101470.63;5068395;28;20118;-45
2023/04/21 03:40:39;;;;;;;2.08;1.35;;;;;;;7.31;100.00;101469.81;5053940;28;20029;-47
2023/04/21 03:43:04;;;;;;;3.80;2.55;;;;;;;7.28;100.00;101459.38;5072511;28;20054;-45
2023/04/21 03:45:29;;;;;;;2.15;1.45;;;;;;;7.25;100.00;101455.16;5058918;28;20020;-45
2023/04/21 03:47:55;;;;;;;2.67;2.22;;;;;;;7.24;100.00;101452.63;5050800;28;20036;-47
2023/04/21 03:50:22;;;;;;;114.63;39.47;;;;;;;7.20;100.00;101448.56;5053873;28;20032;-43
2023/04/21 03:52:47;;;;;;;126.95;41.22;;;;;;;7.23;100.00;101451.78;5067821;28;20098;-45
2023/04/21 03:55:13;;;;;;;127.50;41.63;;;;;;;7.23;100.00;101443.75;5061696;28;20036;-43
2023/04/21 03:57:41;;;;;;;131.80;42.00;;;;;;;7.22;100.00;101441.25;5049294;28;20024;-42
2023/04/21 04:00:11;;;;;;;132.95;43.83;;;;;;;7.21;100.00;101439.53;5048830;28;20033;-43
2023/04/21 04:02:37;;;;;;;136.10;45.58;;;;;;;7.21;100.00;101437.72;5053481;28;20048;-41
2023/04/21 04:05:04;;;;;;;149.23;45.13;;;;;;;7.25;100.00;101439.09;5061280;28;20064;-41
2023/04/21 04:07:33;;;;;;;142.40;46.85;;;;;;;7.26;100.00;101426.56;5051380;28;20450;-40
2023/04/21 04:09:58;;;;;;;158.95;46.53;;;;;;;7.25;100.00;101428.38;5063293;28;20470;-42
2023/04/21 04:12:23;;;;;;;147.05;46.10;;;;;;;7.28;100.00;101421.06;5053167;28;20037;-43
2023/04/21 04:14:49;;;;;;;152.75;46.70;;;;;;;7.24;100.00;101424.03;5057770;28;20025;-43
2023/04/21 04:17:15;;;;;;;140.38;47.33;;;;;;;7.28;100.00;101437.13;5049297;28;20043;-43
2023/04/21 04:19:40;;;;;;;144.68;46.78;;;;;;;7.20;100.00;101427.97;5050177;28;20429;-43
2023/04/21 04:22:05;;;;;;;147.30;46.63;;;;;;;7.20;100.00;101425.31;5067234;28;20032;-42
2023/04/21 04:24:34;;;;;;;154.52;45.67;;;;;;;7.20;100.00;101422.63;5063921;28;20543;-44
2023/04/21 04:27:01;;;;;;;134.50;45.63;;;;;;;7.17;100.00;101430.13;5069997;28;20123;-42
2023/04/21 04:29:27;;;;;;;159.52;49.13;;;;;;;7.18;100.00;101431.78;5058412;28;20040;-40
2023/04/21 04:31:53;;;;;;;154.32;47.92;;;;;;;7.15;100.00;101424.91;5051506;28;20458;-47
2023/04/21 04:34:18;;;;;;;155.40;48.70;;;;;;;7.14;100.00;101428.56;5054833;28;20037;-46
2023/04/21 04:36:44;;;;;;;151.15;49.05;;;;;;;7.17;100.00;101441.66;5051087;28;20545;-45
2023/04/21 04:39:11;;;;;;;155.48;48.65;;;;;;;7.17;100.00;101433.63;5054581;28;20035;-44
2023/04/21 04:41:37;;;;;;;143.23;45.38;;;;;;;7.16;100.00;101431.09;5068052;28;20029;-44
2023/04/21 04:44:04;;;;;;;148.93;47.33;;;;;;;7.19;100.00;101439.69;5066860;28;20515;-41
2023/04/21 04:46:30;;;;;;;153.73;45.97;;;;;;;7.20;100.00;101437.84;5052445;28;20058;-43
2023/04/21 04:48:55;;;;;;;151.68;48.60;;;;;;;7.23;100.00;101430.38;5051681;28;20059;-47
2023/04/21 04:51:22;;;;;;;149.52;46.47;;;;;;;7.23;100.00;101432.19;5052559;28;20025;-46
2023/04/21 04:53:47;;;;;;;143.30;45.60;;;;;;;7.23;100.00;101430.38;5050760;28;20024;-44
2023/04/21 04:56:12;;;;;;;151.07;47.85;;;;;;;7.17;100.00;101427.44;5052282;28;20063;-43
2023/04/21 04:58:38;;;;;;;155.82;48.35;;;;;;;7.14;100.00;101425.91;5051643;28;20067;-45
2023/04/21 05:01:16;;;;;;;162.18;49.55;;;;;;;7.22;100.00;101434.03;5054788;28;20434;-44
2023/04/21 05:03:42;;;;;;;158.80;49.83;;;;;;;7.23;100.00;101440.22;5068463;28;20036;-44
2023/04/21 05:06:08;;;;;;;162.95;50.20;;;;;;;7.23;100.00;101435.72;5051879;28;20041;-44
2023/04/21 05:08:34;;;;;;;154.45;47.92;;;;;;;7.26;100.00;101445.28;5054759;28;20025;-41
2023/04/21 05:10:59;;;;;;;160.13;48.88;;;;;;;7.29;100.00;101454.88;5053955;28;20438;-43
2023/04/21 05:13:25;;;;;;;153.98;48.45;;;;;;;7.30;100.00;101451.22;5052490;28;20032;-44
2023/04/21 05:15:56;;;;;;;149.68;48.63;;;;;;;7.30;100.00;101441.34;5054804;28;20118;-42
2023/04/21 05:18:22;;;;;;;153.20;48.45;;;;;;;7.31;100.00;101450.22;5053831;28;20036;-42
2023/04/21 05:20:47;;;;;;;156.45;50.22;;;;;;;7.29;100.00;101444.16;5052917;28;20033;-44
2023/04/21 05:23:13;;;;;;;153.63;47.75;;;;;;;7.32;100.00;101443.88;5058092;28;20033;-42
2023/04/21 05:25:39;;;;;;;155.93;47.05;;;;;;;7.33;100.00;101446.41;5054046;28;20029;-43
2023/04/21 05:28:04;;;;;;;165.85;49.35;;;;;;;7.34;100.00;101445.41;5035886;28;20134;-41
2023/04/21 05:30:29;;;;;;;160.30;47.47;;;;;;;7.36;100.00;101439.91;5052887;28;20033;-41
2023/04/21 05:32:55;;;;;;;160.07;49.90;;;;;;;7.40;100.00;101441.31;5053892;28;20390;-44
2023/04/21 05:35:20;;;;;;;156.93;49.92;;;;;;;7.42;100.00;101433.97;5054134;28;20035;-44
2023/04/21 05:37:46;;;;;;;157.00;48.42;;;;;;;7.45;100.00;101433.66;5055850;28;20482;-46
2023/04/21 05:40:11;;;;;;;170.13;50.92;;;;;;;7.45;100.00;101431.84;5060886;28;20373;-43
2023/04/21 05:42:36;;;;;;;157.60;51.20;;;;;;;7.48;100.00;101439.59;5071156;28;20064;-43
2023/04/21 05:45:02;;;;;;;161.32;50.28;;;;;;;7.52;100.00;101452.69;5069551;28;20054;-46
2023/04/21 05:47:28;;;;;;;174.85;52.42;;;;;;;7.53;100.00;101452.56;5060279;28;20487;-42
2023/04/21 05:49:53;;;;;;;163.38;49.65;;;;;;;7.53;100.00;101447.19;5051385;28;20049;-43
2023/04/21 05:52:20;;;;;;;158.77;48.10;;;;;;;7.56;100.00;101451.41;5055534;28;20534;-45
2023/04/21 05:54:45;;;;;;;152.48;48.83;;;;;;;7.55;100.00;101457.75;5070396;28;20373;-41
2023/04/21 05:57:11;;;;;;;162.00;53.05;;;;;;;7.60;100.00;101456.31;5066015;28;20097;-41
2023/04/21 05:59:36;;;;;;;160.65;49.97;;;;;;;7.57;100.00;101459.28;5057407;28;20084;-43
2023/04/21 06:02:02;;;;;;;164.18;50.63;;;;;;;7.70;100.00;101457.09;5036351;28;20123;-43
2023/04/21 06:04:28;;;;;;;153.48;49.05;;;;;;;7.75;100.00;101455.84;5064238;28;20051;-46
2023/04/21 06:06:53;;;;;;;163.15;50.10;;;;;;;7.77;100.00;101454.69;5056290;28;20033;-42
2023/04/21 06:09:18;;;;;;;167.32;50.53;;;;;;;7.84;100.00;101465.66;5054365;28;20033;-45
2023/04/21 06:11:44;;;;;;;176.30;53.35;;;;;;;7.84;100.00;101460.28;5052406;28;20120;-43
2023/04/21 06:14:09;;;;;;;167.75;52.40;;;;;;;7.91;100.00;101461.38;5067445;28;20060;-41
2023/04/21 06:16:35;;;;;;;173.57;54.28;;;;;;;7.94;100.00;101462.94;5049537;28;20164;-44
2023/04/21 06:19:00;;;;;;;162.38;50.95;;;;;;;7.99;100.00;101457.97;5063158;28;20072;-45
2023/04/21 06:21:25;;;;;;;166.80;54.85;;;;;;;8.01;100.00;101462.19;5055877;28;20124;-44
2023/04/21 06:23:51;;;;;;;167.25;51.88;;;;;;;8.09;100.00;101459.59;5053885;28;20097;-44
2023/04/21 06:26:17;;;;;;;168.73;54.42;;;;;;;8.09;100.00;101459.59;5069473;28;20032;-45
2023/04/21 06:28:43;;;;;;;159.73;53.70;;;;;;;8.10;100.00;101450.53;5065703;28;20427;-41
2023/04/21 06:31:13;;;;;;;167.00;54.38;;;;;;;8.14;100.00;101461.81;5052783;28;20024;-44
2023/04/21 06:33:39;;;;;;;158.88;53.40;;;;;;;8.20;100.00;101455.00;5052254;28;20115;-45
2023/04/21 06:36:06;;;;;;;164.90;53.65;;;;;;;8.16;100.00;101449.09;5053606;28;20120;-42
2023/04/21 06:38:31;;;;;;;169.52;55.40;;;;;;;8.24;100.00;101453.69;5054220;28;20182;-43
2023/04/21 06:40:57;;;;;;;161.02;53.42;;;;;;;8.26;100.00;101455.22;5050876;28;20380;-42
2023/04/21 06:43:22;;;;;;;156.68;52.42;;;;;;;8.33;100.00;101450.97;5050172;28;20024;-43
2023/04/21 06:45:47;;;;;;;169.45;56.38;;;;;;;8.36;100.00;101453.31;5058270;28;20543;-44
2023/04/21 06:48:13;;;;;;;165.48;56.67;;;;;;;8.36;100.00;101450.66;5062501;28;20024;-43
2023/04/21 06:50:38;;;;;;;167.35;54.47;;;;;;;8.38;100.00;101453.19;5064911;28;20049;-41
2023/04/21 06:53:04;;;;;;;173.52;56.03;;;;;;;8.40;100.00;101450.38;5059651;28;20018;-49
2023/04/21 06:55:29;;;;;;;167.50;55.03;;;;;;;8.45;100.00;101448.06;5053594;28;20025;-44
2023/04/21 06:57:54;;;;;;;174.43;57.83;;;;;;;8.33;100.00;101434.03;5060258;28;20048;-44
2023/04/21 07:00:21;;;;;;;173.93;59.13;;;;;;;8.40;100.00;101435.16;5062413;28;20032;-44
2023/04/21 07:02:46;;;;;;;164.25;55.03;;;;;;;8.44;100.00;101431.13;5061897;28;20043;-42
2023/04/21 07:05:12;;;;;;;174.45;56.08;;;;;;;8.43;100.00;101437.50;5062601;28;20028;-41
2023/04/21 07:07:37;;;;;;;184.55;57.95;;;;;;;8.41;100.00;101420.72;5063122;28;20033;-44
2023/04/21 07:10:03;;;;;;;178.65;57.33;;;;;;;8.54;100.00;101425.72;5062084;28;20025;-46
2023/04/21 07:12:28;;;;;;;180.98;60.80;;;;;;;8.52;100.00;101428.53;5060629;28;20041;-45
2023/04/21 07:14:53;;;;;;;169.95;57.88;;;;;;;8.56;100.00;101421.03;5058204;28;20020;-46
2023/04/21 07:17:19;;;;;;;185.77;61.35;;;;;;;8.55;100.00;101428.22;5063000;28;20450;-42
2023/04/21 07:19:45;;;;;;;177.00;59.30;;;;;;;8.39;100.00;101425.38;5063490;28;20059;-42
2023/04/21 07:22:10;;;;;;;172.07;57.97;;;;;;;8.27;100.00;101418.56;5059820;28;21485;-44
2023/04/21 07:24:36;;;;;;;178.45;61.38;;;;;;;8.28;100.00;101420.22;5055870;28;20036;-45
2023/04/21 07:27:02;;;;;;;173.65;58.25;;;;;;;8.40;100.00;101421.72;5062458;28;20024;-44
2023/04/21 07:29:28;;;;;;;175.40;60.38;;;;;;;8.39;100.00;101428.06;5057803;28;20055;-44
2023/04/21 07:31:55;;;;;;;170.02;60.50;;;;;;;8.37;100.00;101421.97;5062693;28;20016;-45
2023/04/21 07:34:20;;;;;;;171.88;59.85;;;;;;;8.39;100.00;101422.72;5057320;28;20020;-43
2023/04/21 07:36:46;;;;;;;175.23;58.70;;;;;;;8.43;100.00;101426.78;5062205;28;20171;-46
2023/04/21 07:39:11;;;;;;;184.35;60.75;;;;;;;8.44;100.00;101428.47;5060523;28;20025;-44
2023/04/21 07:41:37;;;;;;;181.40;60.85;;;;;;;8.55;100.00;101432.75;5061176;28;20045;-44
2023/04/21 07:44:02;;;;;;;181.65;58.53;;;;;;;8.49;100.00;101434.22;5060133;28;20043;-42
2023/04/21 07:46:30;;;;;;;172.25;58.55;;;;;;;8.65;100.00;101430.81;5062199;28;20108;-40
2023/04/21 07:48:56;;;;;;;192.00;60.90;;;;;;;8.78;100.00;101430.44;5060694;28;20044;-43
2023/04/21 07:51:22;;;;;;;174.55;60.00;;;;;;;8.81;100.00;101424.75;5058708;28;20025;-42
2023/04/21 07:53:47;;;;;;;180.00;62.13;;;;;;;8.91;100.00;101427.34;5043083;28;20497;-41
2023/04/21 07:56:13;;;;;;;171.90;60.47;;;;;;;9.01;100.00;101411.97;5058566;28;20021;-40
2023/04/21 07:58:38;;;;;;;160.18;58.17;;;;;;;9.18;100.00;101423.66;5060224;28;20024;-42
2023/04/21 08:01:04;;;;;;;178.48;59.80;;;;;;;9.18;100.00;101418.28;5059578;28;20041;-40
2023/04/21 08:03:29;;;;;;;175.90;58.65;;;;;;;9.38;100.00;101417.06;5058323;28;20089;-43
2023/04/21 08:05:55;;;;;;;159.40;57.10;;;;;;;9.49;100.00;101404.34;5062401;28;20036;-42
2023/04/21 08:08:21;;;;;;;161.00;60.50;;;;;;;9.67;100.00;101402.41;5042226;28;20079;-41
2023/04/21 08:10:46;;;;;;;159.75;61.17;;;;;;;10.22;100.00;101399.19;5061197;28;20031;-41
2023/04/21 08:13:12;;;;;;;148.70;56.58;;;;;;;10.48;100.00;101384.78;5060500;28;20127;-43
2023/04/21 08:15:37;;;;;;;152.73;56.67;;;;;;;10.53;100.00;101387.78;5058948;28;20029;-40
2023/04/21 08:18:03;;;;;;;143.55;56.13;;;;;;;10.49;100.00;101375.69;5065179;28;20025;-43
2023/04/21 08:20:28;;;;;;;143.30;56.70;;;;;;;10.66;100.00;101363.91;5041262;28;20090;-41
2023/04/21 08:22:54;;;;;;;136.40;54.65;;;;;;;11.49;100.00;101365.38;5062230;28;20043;-40
2023/04/21 08:25:19;;;;;;;132.98;54.20;;;;;;;11.74;100.00;101347.25;5057750;28;20053;-45
2023/04/21 08:27:45;;;;;;;129.32;53.28;;;;;;;11.99;100.00;101363.28;5061383;28;20039;-43
2023/04/21 08:30:10;;;;;;;118.20;51.22;;;;;;;11.90;100.00;101357.13;5060222;28;20025;-39
2023/04/21 08:32:36;;;;;;;131.88;52.50;;;;;;;11.92;100.00;101356.94;5052396;28;20032;-41
2023/04/21 08:35:01;;;;;;;127.13;54.63;;;;;;;11.43;100.00;101358.00;5059752;28;20036;-44
2023/04/21 08:37:28;;;;;;;125.35;53.90;;;;;;;11.41;100.00;101357.34;5059559;28;20031;-42
2023/04/21 08:39:53;;;;;;;128.63;53.30;;;;;;;11.50;100.00;101352.72;5060236;28;20503;-42
2023/04/21 08:42:19;;;;;;;124.75;52.65;;;;;;;11.52;100.00;101354.25;5058374;28;20140;-40
2023/04/21 08:44:45;;;;;;;128.88;51.35;;;;;;;11.53;100.00;101353.25;5057939;28;20040;-38
2023/04/21 08:47:11;;;;;;;132.93;55.22;;;;;;;12.14;100.00;101358.81;5056492;28;20028;-42
2023/04/21 08:49:37;;;;;;;119.25;51.90;;;;;;;13.10;100.00;101341.03;5058175;28;20114;-42
2023/04/21 08:52:04;;;;;;;111.78;49.58;;;;;;;14.12;100.00;101334.81;5061904;28;20041;-41
2023/04/21 08:54:31;;;;;;;110.47;51.75;;;;;;;14.35;100.00;101333.75;5056104;28;20021;-45
2023/04/21 08:56:56;;;;;;;105.95;50.65;;;;;;;14.84;100.00;101330.22;5048819;28;20449;-41
2023/04/21 08:59:22;;;;;;;100.72;48.85;;;;;;;15.27;100.00;101321.91;5049102;28;20032;-43
2023/04/21 09:02:08;;;;;;;105.80;50.50;;;;;;;15.10;100.00;101332.25;5048567;28;20059;-41
2023/04/21 09:04:34;;;;;;;97.32;47.10;;;;;;;15.26;100.00;101325.66;5048690;28;20032;-41
2023/04/21 09:06:59;;;;;;;87.80;43.58;;;;;;;14.93;100.00;101315.47;5049687;28;20029;-42
2023/04/21 09:09:25;;;;;;;95.30;45.53;;;;;;;15.38;100.00;101326.78;5050065;28;20181;-41
2023/04/21 09:11:56;;;;;;;84.85;42.70;;;;;;;15.41;100.00;101323.66;5047339;28;20052;-45
2023/04/21 09:14:21;;;;;;;83.25;43.92;;;;;;;16.20;100.00;101317.63;5048360;28;20036;-42
2023/04/21 09:16:58;;;;;;;88.22;44.42;;;;;;;15.98;100.00;101333.25;5046850;28;20029;-44
2023/04/21 09:19:28;;;;;;;89.60;41.85;;;;;;;14.97;100.00;101332.16;5046735;28;20096;-43
2023/04/21 09:21:54;;;;;;;84.47;41.55;;;;;;;15.47;100.00;101336.41;5045792;28;20041;-43
2023/04/21 09:24:19;;;;;;;75.90;39.10;;;;;;;15.94;100.00;101328.44;5045150;28;20029;-41
2023/04/21 09:26:50;;;;;;;68.53;36.63;;;;;;;15.85;100.00;101329.66;5047116;28;20025;-40
2023/04/21 09:29:16;;;;;;;69.78;37.00;;;;;;;15.83;100.00;101327.16;5050276;28;20083;-43
2023/04/21 09:31:42;;;;;;;64.13;34.90;;;;;;;15.65;100.00;101329.59;5050485;28;20098;-45
2023/04/21 09:34:25;;;;;;;53.73;33.10;;;;;;;16.37;100.00;101339.78;5048156;28;20029;-43
2023/04/21 09:37:01;;;;;;;57.83;31.45;;;;;;;16.54;94.88;101323.91;5048695;28;20275;-45
2023/04/21 09:39:31;;;;;;;62.75;33.65;;;;;;;15.92;95.01;101342.22;5048367;28;20407;-43
2023/04/21 09:41:57;;;;;;;56.97;33.13;;;;;;;15.73;97.60;101337.56;5048400;28;20499;-43
2023/04/21 09:44:24;;;;;;;64.70;34.08;;;;;;;14.88;99.54;101320.66;5048621;28;20017;-44
2023/04/21 09:46:50;;;;;;;62.33;33.10;;;;;;;15.09;100.00;101328.72;5049453;28;20056;-41
2023/04/21 09:49:16;;;;;;;55.88;30.45;;;;;;;14.68;100.00;101329.47;5048035;28;20130;-40
2023/04/21 09:51:42;;;;;;;52.50;29.38;;;;;;;15.32;99.13;101319.41;5049067;28;20041;-43
2023/04/21 09:54:18;;;;;;;53.78;29.13;;;;;;;15.37;98.52;101306.09;5057407;28;20028;-40
2023/04/21 09:56:48;;;;;;;51.00;29.02;;;;;;;14.89;98.87;101325.88;5044579;28;20037;-44
2023/04/21 09:59:18;;;;;;;51.30;28.27;;;;;;;14.83;100.00;101315.00;5065520;28;20037;-42
2023/04/21 10:01:47;;;;;;;54.00;30.38;;;;;;;15.03;100.00;101309.69;5060524;28;20100;-40
2023/04/21 10:04:13;;;;;;;54.25;30.02;;;;;;;14.94;100.00;101300.88;5065273;28;20029;-43
2023/04/21 10:06:40;;;;;;;51.08;29.30;;;;;;;14.77;100.00;101311.22;5064706;28;20031;-39
2023/04/21 10:09:08;;;;;;;59.45;29.70;;;;;;;14.38;100.00;101306.31;5073169;28;20044;-40
2023/04/21 10:11:35;;;;;;;50.38;27.27;;;;;;;14.35;100.00;101309.38;5063449;28;20025;-41
2023/04/21 10:14:01;;;;;;;50.50;26.50;;;;;;;14.51;100.00;101309.13;5072944;28;20070;-42
2023/04/21 10:16:27;;;;;;;50.55;27.55;;;;;;;14.61;100.00;101306.94;5061437;28;20429;-42
2023/04/21 10:18:52;;;;;;;57.22;28.38;;;;;;;13.93;100.00;101303.81;5060634;28;20039;-41
2023/04/21 10:21:23;;;;;;;52.88;29.75;;;;;;;13.99;100.00;101311.13;5066168;28;20067;-44
2023/04/21 10:23:51;;;;;;;52.22;27.58;;;;;;;14.14;100.00;101310.22;5071494;28;20039;-41
2023/04/21 10:26:25;;;;;;;50.33;27.73;;;;;;;14.10;100.00;101309.78;5052937;28;20021;-42
2023/04/21 10:28:56;;;;;;;54.17;27.40;;;;;;;14.43;100.00;101293.84;5052358;28;20479;-42
2023/04/21 10:31:50;;;;;;;50.17;26.42;;;;;;;14.15;100.00;101304.63;5053251;28;20112;-42
2023/04/21 10:34:17;;;;;;;48.78;27.45;;;;;;;13.52;100.00;101290.03;5053247;28;20083;-43
2023/04/21 10:36:55;;;;;;;53.25;26.45;;;;;;;13.60;100.00;101277.22;5057622;28;20473;-43
2023/04/21 10:39:25;;;;;;;42.90;24.50;;;;;;;13.98;100.00;101286.97;5060866;28;20292;-44
2023/04/21 10:41:50;;;;;;;44.10;25.95;;;;;;;14.12;100.00;101275.25;5064627;28;20465;-43
2023/04/21 10:44:16;;;;;;;43.88;25.65;;;;;;;14.24;100.00;101271.00;5068769;28;20025;-41
2023/04/21 10:46:50;;;;;;;49.05;27.50;;;;;;;14.51;100.00;101268.50;5059896;28;20109;-42
2023/04/21 10:49:26;;;;;;;47.05;25.10;;;;;;;14.80;100.00;101262.03;5070604;28;20049;-41
2023/04/21 10:52:03;;;;;;;48.90;25.48;;;;;;;14.83;100.00;101260.81;5069160;28;20533;-42
2023/04/21 10:54:49;;;;;;;48.20;25.52;;;;;;;15.00;100.00;101258.59;5072498;28;20508;-41
2023/04/21 10:57:17;;;;;;;44.35;26.45;;;;;;;15.68;100.00;101264.06;5067191;28;20120;-42
2023/04/21 10:59:43;;;;;;;46.25;25.42;;;;;;;15.99;97.22;101261.63;5058775;28;20120;-38
2023/04/21 11:02:13;;;;;;;44.08;24.38;;;;;;;16.56;96.86;101262.03;5034319;28;20021;-40